Lombardville, Illinois
Current Conditions -  °F | °C
As of 9:55 AM on Friday 31 Oct 2014 (Local Time) from KC75 Reporting Station
Broken Clouds Broken Clouds  
Wind Chill: -1°   Ceiling: 4200
Heat Index:   Visibility: 10mi
Dew Point: -4°   Wind: 18mph
Humidity: 57%   Direction: 360°N
Pressure: 30.23"   Gusts: 28mph
Location:  41.1472°N, 89.6399°W
Report Text: KC75 311455Z AUTO 36016G24KT 10SM SCT035 BKN042 04/M04 A3023 RMK AO2 T00381040
Loading
Personal Weather Stations






























Interactive Weather Map
Tropical Storm Tracking
New forecast layout! Learn more

10-Day Weather Forecast

Advertisements
Track Severe Weather on mobile